Madoi, China
Current Conditions -  °F | °C
As of 9:00 PM on Friday 31 Oct 2014 (Local Time) from ZLLL Reporting Station
Scattered Clouds Scattered Clouds  
Wind Chill: 30°   Ceiling: Unl
Heat Index: 36°   Visibility: 6mi
Dew Point: 18°   Wind: 7mph
Humidity: 48%   Direction: 80°E
Pressure: 30.36"   Gusts: NA
Location:  34.92°N, 98.22°E
Report Text: ZLLL 311300Z 08003MPS 9999 SCT046 02/M08 Q1028 NOSIG
Loading
Personal Weather Stations






























Interactive Weather Map
Tropical Storm Tracking
New forecast layout! Learn more

10-Day Weather Forecast

Advertisements
Track Severe Weather on mobile